Time;durP1;ratioP1;P1;durP2;ratioP2;P2;SDS_P1;SDS_P2;PMS_P1;PMS_P2;Temp;Humidity;BMP_temperature;BMP_pressure;BME280_temperature;BME280_humidity;BME280_pressure;Samples;Min_cycle;Max_cycle;Signal;HPM_P1;HPM_P2
2024/01/10 00:03:10;;;;;;;;;;;;;;;16.71;40.38;101027.19;10328809;28;845;-79
2024/01/10 00:08:06;;;;;;;;;;;;;;;16.69;40.50;101021.09;10326994;28;813;-79
2024/01/10 00:13:02;;;;;;;;;;;;;;;16.69;40.48;101029.00;10327712;28;898;-79
2024/01/10 00:17:58;;;;;;;;;;;;;;;16.70;40.44;101024.59;10328211;28;1914;-79
2024/01/10 00:22:54;;;;;;;;;;;;;;;16.71;40.14;101015.78;10327454;28;904;-79
2024/01/10 00:27:49;;;;;;;;;;;;;;;16.70;40.43;101011.44;10327091;28;920;-79
2024/01/10 00:32:45;;;;;;;;;;;;;;;16.69;40.23;101000.03;10326914;28;903;-79
2024/01/10 00:37:41;;;;;;;;;;;;;;;16.70;40.15;101003.53;10327040;28;1897;-79
2024/01/10 00:42:37;;;;;;;;;;;;;;;16.66;40.42;101005.34;10326643;28;896;-79
2024/01/10 00:47:33;;;;;;;;;;;;;;;16.67;40.19;100996.56;10326365;28;926;-79
2024/01/10 00:52:29;;;;;;;;;;;;;;;16.64;40.12;100994.84;10326259;28;775;-79
2024/01/10 00:57:25;;;;;;;;;;;;;;;16.61;40.40;100994.03;10326059;28;1973;-79
2024/01/10 01:02:21;;;;;;;;;;;;;;;16.63;40.52;100992.22;10326564;28;806;-79
2024/01/10 01:07:17;;;;;;;;;;;;;;;16.62;40.04;100988.75;10325761;28;865;-80
2024/01/10 01:12:13;;;;;;;;;;;;;;;16.57;40.35;100980.06;10325189;28;889;-79
2024/01/10 01:17:08;;;;;;;;;;;;;;;16.59;40.32;100982.69;10325777;28;1882;-80
2024/01/10 01:22:04;;;;;;;;;;;;;;;16.57;40.16;100969.53;10325377;28;791;-79
2024/01/10 01:27:00;;;;;;;;;;;;;;;16.57;40.25;100968.66;10325464;28;798;-79
2024/01/10 01:31:57;;;;;;;;;;;;;;;16.59;40.04;100959.84;10325292;28;932;-79
2024/01/10 01:36:53;;;;;;;;;;;;;;;16.57;40.07;100960.78;10325050;28;1898;-80
2024/01/10 01:41:49;;;;;;;;;;;;;;;16.58;40.06;100957.22;10325049;28;922;-80
2024/01/10 01:46:44;;;;;;;;;;;;;;;16.59;39.93;100958.97;10325205;28;968;-79
2024/01/10 01:51:40;;;;;;;;;;;;;;;16.56;40.11;100954.66;10325510;28;897;-80
2024/01/10 01:56:36;;;;;;;;;;;;;;;16.55;40.02;100950.25;10324152;28;1955;-80
2024/01/10 02:01:32;;;;;;;;;;;;;;;16.56;39.94;100945.88;10324227;28;814;-80
2024/01/10 02:06:29;;;;;;;;;;;;;;;16.53;40.19;100946.81;10324556;28;769;-80
2024/01/10 02:11:25;;;;;;;;;;;;;;;16.53;40.21;100940.66;10324544;28;822;-80
2024/01/10 02:16:21;;;;;;;;;;;;;;;16.53;40.16;100932.75;10325169;28;1894;-80
2024/01/10 02:21:17;;;;;;;;;;;;;;;16.51;40.10;100935.44;10324980;28;838;-79
2024/01/10 02:26:13;;;;;;;;;;;;;;;16.51;40.14;100934.56;10324302;28;850;-80
2024/01/10 02:31:08;;;;;;;;;;;;;;;16.52;39.85;100933.66;10324513;28;880;-80
2024/01/10 02:36:04;;;;;;;;;;;;;;;16.48;39.92;100924.97;10331286;28;1898;-79
2024/01/10 02:41:02;;;;;;;;;;;;;;;16.48;40.15;100919.72;10331901;28;955;-79
2024/01/10 02:45:58;;;;;;;;;;;;;;;16.46;40.01;100921.50;10331107;28;1593;-80
2024/01/10 02:50:55;;;;;;;;;;;;;;;16.48;39.86;100916.19;10331631;28;936;-80
2024/01/10 02:55:51;;;;;;;;;;;;;;;16.47;40.06;100911.84;10330049;28;1910;-80
2024/01/10 03:00:47;;;;;;;;;;;;;;;16.44;40.01;100911.00;10330617;28;931;-80
2024/01/10 03:05:44;;;;;;;;;;;;;;;16.46;39.94;100913.59;10330647;28;805;-79
2024/01/10 03:10:40;;;;;;;;;;;;;;;16.47;40.00;100917.09;10330159;28;830;-80
2024/01/10 03:15:35;;;;;;;;;;;;;;;16.47;39.86;100914.47;10330561;28;1951;-80
2024/01/10 03:20:31;;;;;;;;;;;;;;;16.46;39.95;100897.81;10330594;28;905;-80
2024/01/10 03:25:27;;;;;;;;;;;;;;;16.43;39.82;100901.38;10329716;28;822;-80
2024/01/10 03:30:24;;;;;;;;;;;;;;;16.43;40.04;100893.47;10330161;28;758;-80
2024/01/10 03:35:20;;;;;;;;;;;;;;;16.46;39.56;100894.31;10329273;28;1897;-79
2024/01/10 03:40:16;;;;;;;;;;;;;;;16.43;39.96;100895.25;10329294;28;719;-79
2024/01/10 03:45:12;;;;;;;;;;;;;;;16.43;39.79;100895.25;10327630;28;894;-80
2024/01/10 03:50:08;;;;;;;;;;;;;;;16.44;39.89;100895.19;10328677;28;879;-79
2024/01/10 03:55:04;;;;;;;;;;;;;;;16.41;39.86;100905.78;10329202;28;1982;-80
2024/01/10 04:00:00;;;;;;;;;;;;;;;16.42;39.94;100894.34;10328496;28;769;-80
2024/01/10 04:04:56;;;;;;;;;;;;;;;16.50;39.53;100886.31;10327986;28;814;-80
2024/01/10 04:09:52;;;;;;;;;;;;;;;16.47;39.71;100896.91;10327718;28;850;-80
2024/01/10 04:14:48;;;;;;;;;;;;;;;16.50;39.64;100902.09;10327601;28;1939;-80
2024/01/10 04:19:44;;;;;;;;;;;;;;;16.56;39.47;100902.00;10328028;28;890;-79
2024/01/10 04:24:39;;;;;;;;;;;;;;;16.53;39.79;100902.06;10327539;28;861;-79
2024/01/10 04:29:35;;;;;;;;;;;;;;;16.55;39.45;100891.50;10327652;28;877;-79
2024/01/10 04:34:31;;;;;;;;;;;;;;;16.57;39.50;100893.19;10326814;28;1898;-80
2024/01/10 04:39:27;;;;;;;;;;;;;;;16.57;39.85;100894.97;10325853;28;1235;-79
2024/01/10 04:44:24;;;;;;;;;;;;;;;16.62;39.44;100891.34;10327235;28;917;-80
2024/01/10 04:49:19;;;;;;;;;;;;;;;16.59;39.77;100908.97;10326281;28;882;-79
2024/01/10 04:54:15;;;;;;;;;;;;;;;16.57;39.62;100898.47;10325118;28;1955;-80
2024/01/10 04:59:11;;;;;;;;;;;;;;;16.60;39.46;100897.53;10326090;28;802;-80
2024/01/10 05:04:07;;;;;;;;;;;;;;;16.58;39.68;100896.69;10325959;28;798;-79
2024/01/10 05:09:04;;;;;;;;;;;;;;;16.57;39.45;100893.19;10326029;28;837;-79
2024/01/10 05:14:00;;;;;;;;;;;;;;;16.64;39.41;100889.56;10326328;28;1951;-79
2024/01/10 05:18:56;;;;;;;;;;;;;;;16.65;39.29;100891.28;10325597;28;770;-80
2024/01/10 05:23:51;;;;;;;;;;;;;;;16.68;39.21;100887.72;10325554;28;862;-80
2024/01/10 05:28:47;;;;;;;;;;;;;;;16.69;39.34;100892.09;10325326;28;901;-79
2024/01/10 05:33:43;;;;;;;;;;;;;;;16.75;39.11;100894.59;10325936;28;871;-79
2024/01/10 05:38:40;;;;;;;;;;;;;;;16.77;39.02;100900.75;10324725;28;1890;-80
2024/01/10 05:43:36;;;;;;;;;;;;;;;16.84;38.97;100890.94;10325652;28;878;-81
2024/01/10 05:48:32;;;;;;;;;;;;;;;16.82;39.03;100882.19;10324990;28;930;-77
2024/01/10 05:53:28;;;;;;;;;;;;;;;16.84;38.81;100897.06;10324984;28;870;-80
2024/01/10 05:58:23;;;;;;;;;;;;;;;16.91;38.82;100886.41;10324801;28;1917;-82
2024/01/10 06:03:19;;;;;;;;;;;;;;;16.89;39.02;100886.44;10325339;28;807;-79
2024/01/10 06:08:15;;;;;;;;;;;;;;;16.94;38.91;100878.44;10329133;28;951;-80
2024/01/10 06:13:11;;;;;;;;;;;;;;;16.93;39.18;100890.75;10333029;28;790;-78
2024/01/10 06:18:07;;;;;;;;;;;;;;;16.94;39.00;100881.94;10332779;28;1914;-80
2024/01/10 06:23:03;;;;;;;;;;;;;;;16.93;39.04;100885.47;10332638;28;826;-74
2024/01/10 06:27:59;;;;;;;;;;;;;;;16.69;39.03;100881.56;10331990;28;801;-73
2024/01/10 06:32:55;;;;;;;;;;;;;;;16.57;39.33;100882.66;10331664;28;773;-72
2024/01/10 06:37:51;;;;;;;;;;;;;;;16.60;38.90;100887.88;10331315;28;1948;-75
2024/01/10 06:42:47;;;;;;;;;;;;;;;16.77;38.58;100898.09;10330709;28;1328;-79
2024/01/10 06:47:43;;;;;;;;;;;;;;;16.82;38.49;100897.97;10331794;28;867;-80
2024/01/10 06:52:39;;;;;;;;;;;;;;;16.95;38.39;100893.31;10330985;28;953;-78
2024/01/10 06:57:35;;;;;;;;;;;;;;;16.94;38.73;100896.88;10330179;28;1910;-83
2024/01/10 07:02:32;;;;;;;;;;;;;;;16.91;38.82;100894.31;10330643;28;777;-80
2024/01/10 07:07:28;;;;;;;;;;;;;;;16.88;38.80;100897.00;10330457;28;952;-78
2024/01/10 07:12:23;;;;;;;;;;;;;;;16.75;39.13;100886.69;10330474;28;845;-81
2024/01/10 07:17:22;;;;;;;;;;;;;;;16.69;39.35;100892.09;10329684;28;1894;-76
2024/01/10 07:22:20;;;;;;;;;;;;;;;16.60;39.18;100887.00;10329801;28;905;-80
2024/01/10 07:27:16;;;;;;;;;;;;;;;16.51;39.25;100887.19;10329726;28;900;-81
2024/01/10 07:32:13;;;;;;;;;;;;;;;16.50;39.47;100885.44;10330107;28;802;-80
2024/01/10 07:37:10;;;;;;;;;;;;;;;16.55;39.40;100900.25;10329352;28;1882;-80
2024/01/10 07:42:06;;;;;;;;;;;;;;;16.52;39.39;100900.31;10330405;28;774;-79
2024/01/10 07:47:02;;;;;;;;;;;;;;;16.57;39.16;100884.44;10328920;28;872;-79
2024/01/10 07:51:58;;;;;;;;;;;;;;;16.63;39.34;100892.19;10328823;28;929;-79
2024/01/10 07:56:54;;;;;;;;;;;;;;;16.68;39.07;100884.22;10328719;28;1910;-79
2024/01/10 08:01:50;;;;;;;;;;;;;;;16.74;39.20;100895.50;10327630;28;918;-80
2024/01/10 08:06:46;;;;;;;;;;;;;;;16.76;39.13;100893.69;10327475;28;834;-79
2024/01/10 08:11:42;;;;;;;;;;;;;;;16.79;39.25;100893.69;10328384;28;838;-79
2024/01/10 08:16:38;;;;;;;;;;;;;;;16.82;39.30;100896.25;10328132;28;1898;-80
2024/01/10 08:21:34;;;;;;;;;;;;;;;16.84;38.96;100889.16;10327345;28;879;-80
2024/01/10 08:26:30;;;;;;;;;;;;;;;16.85;39.19;100890.03;10327267;28;918;-81
2024/01/10 08:31:26;;;;;;;;;;;;;;;16.87;39.08;100882.94;10326537;28;897;-75
2024/01/10 08:36:24;;;;;;;;;;;;;;;16.86;38.95;100868.94;10326893;28;1901;-75
2024/01/10 08:41:20;;;;;;;;;;;;;;;16.85;39.37;100880.38;10326615;28;877;-80
2024/01/10 08:46:15;;;;;;;;;;;;;;;16.89;39.01;100886.44;10326534;28;782;-79
2024/01/10 08:51:12;;;;;;;;;;;;;;;16.90;38.94;100890.81;10326368;28;795;-79
2024/01/10 08:56:08;;;;;;;;;;;;;;;16.91;38.86;100891.69;10326376;28;1975;-79
2024/01/10 09:01:08;;;;;;;;;;;;;;;16.90;39.08;100897.81;10326959;28;872;-79
2024/01/10 09:06:04;;;;;;;;;;;;;;;16.88;39.09;100908.41;10326319;28;1536;-79
2024/01/10 09:10:59;;;;;;;;;;;;;;;16.91;39.26;100912.75;10325258;28;1047;-80
2024/01/10 09:15:56;;;;;;;;;;;;;;;16.92;38.93;100901.28;10325701;28;1898;-78
2024/01/10 09:20:52;;;;;;;;;;;;;;;16.90;39.15;100901.34;10325520;28;877;-78
2024/01/10 09:25:48;;;;;;;;;;;;;;;16.93;39.12;100903.91;10326112;28;845;-79
2024/01/10 09:30:44;;;;;;;;;;;;;;;16.92;39.28;100899.53;10325745;28;781;-78
2024/01/10 09:35:40;;;;;;;;;;;;;;;16.96;39.05;100901.22;10322183;28;1973;-78
2024/01/10 09:40:36;;;;;;;;;;;;;;;16.97;39.11;100908.19;10325358;28;1046;-78
2024/01/10 09:45:31;;;;;;;;;;;;;;;16.91;38.91;100912.75;10332942;28;773;-77
2024/01/10 09:50:27;;;;;;;;;;;;;;;16.97;38.91;100907.34;10333239;28;917;-78
2024/01/10 09:55:23;;;;;;;;;;;;;;;16.98;38.90;100911.72;10332451;28;1973;-78
2024/01/10 10:00:19;;;;;;;;;;;;;;;16.98;39.01;100911.72;10329617;28;1156;-77
2024/01/10 10:05:15;;;;;;;;;;;;;;;16.98;38.97;100902.06;10333487;28;1507;-77
2024/01/10 10:10:15;;;;;;;;;;;;;;;16.99;39.07;100900.28;10333122;28;873;-77
2024/01/10 10:15:11;;;;;;;;;;;;;;;17.03;38.73;100902.81;10332305;28;1890;-78
2024/01/10 10:20:07;;;;;;;;;;;;;;;17.00;39.11;100904.63;10332012;28;838;-77
2024/01/10 10:25:03;;;;;;;;;;;;;;;17.01;38.87;100901.97;10332451;28;814;-78
2024/01/10 10:29:59;;;;;;;;;;;;;;;17.03;39.24;100901.97;10331468;28;937;-76
2024/01/10 10:34:54;;;;;;;;;;;;;;;17.02;38.88;100893.16;10332100;28;1897;-77
2024/01/10 10:39:50;;;;;;;;;;;;;;;17.03;38.91;100886.16;10331581;28;1371;-77
2024/01/10 10:44:46;;;;;;;;;;;;;;;17.04;38.86;100885.25;10330733;28;1326;-77
2024/01/10 10:49:42;;;;;;;;;;;;;;;17.06;38.88;100888.72;10330626;28;916;-77
2024/01/10 10:54:38;;;;;;;;;;;;;;;17.09;38.98;100889.50;10330190;28;1914;-77
2024/01/10 10:59:34;;;;;;;;;;;;;;;17.08;38.83;100884.25;10329784;28;822;-77
2024/01/10 11:04:30;;;;;;;;;;;;;;;17.09;38.89;100888.66;10330621;28;1859;-78
2024/01/10 11:09:26;;;;;;;;;;;;;;;17.06;38.80;100889.56;10330856;28;762;-76
2024/01/10 11:14:22;;;;;;;;;;;;;;;17.08;38.89;100890.41;10330149;28;1898;-77
2024/01/10 11:19:18;;;;;;;;;;;;;;;17.13;38.79;100878.88;10329713;28;862;-76
2024/01/10 11:24:13;;;;;;;;;;;;;;;17.10;38.89;100869.28;10330422;28;885;-77
2024/01/10 11:29:09;;;;;;;;;;;;;;;17.04;39.22;100867.66;10329758;28;909;-77
2024/01/10 11:34:05;;;;;;;;;;;;;;;17.07;38.85;100861.47;10329694;28;1890;-80
2024/01/10 11:39:02;;;;;;;;;;;;;;;17.06;38.91;100871.13;10328428;28;1227;-77
2024/01/10 11:43:57;;;;;;;;;;;;;;;17.16;38.60;100860.38;10329525;28;877;-77
2024/01/10 11:48:54;;;;;;;;;;;;;;;17.15;38.58;100845.47;10329762;28;822;-77
2024/01/10 11:53:52;;;;;;;;;;;;;;;17.16;38.42;100840.19;10329247;28;884;-77
2024/01/10 11:58:48;;;;;;;;;;;;;;;17.21;38.38;100842.69;10328976;28;1910;-77
2024/01/10 12:03:44;;;;;;;;;;;;;;;17.22;38.36;100834.75;10327638;28;904;-77
2024/01/10 12:08:40;;;;;;;;;;;;;;;17.25;38.51;100841.72;10327934;28;917;-77
2024/01/10 12:13:36;;;;;;;;;;;;;;;17.30;38.34;100851.25;10327866;28;869;-77
2024/01/10 12:18:32;;;;;;;;;;;;;;;17.21;38.62;100847.97;10328235;28;1894;-77
2024/01/10 12:23:31;;;;;;;;;;;;;;;17.31;38.59;100849.47;10328539;28;906;-76
2024/01/10 12:28:27;;;;;;;;;;;;;;;17.35;38.14;100843.25;10326929;28;1183;-78
2024/01/10 12:33:26;;;;;;;;;;;;;;;17.40;38.41;100843.16;10327065;28;887;-77
2024/01/10 12:38:22;;;;;;;;;;;;;;;17.49;37.99;100845.53;10327227;28;1906;-77
2024/01/10 12:43:18;;;;;;;;;;;;;;;17.50;38.12;100832.34;10326674;28;894;-78
2024/01/10 12:48:17;;;;;;;;;;;;;;;17.58;38.08;100824.25;10326008;28;869;-77
2024/01/10 12:53:12;;;;;;;;;;;;;;;17.61;38.10;100821.53;10326357;28;848;-77
2024/01/10 12:58:09;;;;;;;;;;;;;;;17.63;38.17;100825.00;10326861;28;1906;-77
2024/01/10 13:03:05;;;;;;;;;;;;;;;17.69;37.92;100822.19;10326085;28;876;-78
2024/01/10 13:08:01;;;;;;;;;;;;;;;17.73;37.97;100829.09;10324306;28;1010;-77
2024/01/10 13:12:57;;;;;;;;;;;;;;;17.79;38.07;100832.47;10326454;28;810;-78
2024/01/10 13:17:53;;;;;;;;;;;;;;;17.73;38.08;100839.66;10323994;28;1954;-78
2024/01/10 13:22:50;;;;;;;;;;;;;;;17.58;38.47;100821.59;10325990;28;941;-78
2024/01/10 13:27:46;;;;;;;;;;;;;;;17.57;38.47;100832.19;10325062;28;931;-77
2024/01/10 13:32:42;;;;;;;;;;;;;;;17.59;38.43;100833.00;10325237;28;881;-77
2024/01/10 13:37:38;;;;;;;;;;;;;;;17.52;38.47;100834.91;10324900;28;1955;-77
2024/01/10 13:42:35;;;;;;;;;;;;;;;17.48;38.57;100833.28;10325167;28;1579;-78
2024/01/10 13:47:30;;;;;;;;;;;;;;;17.45;38.91;100841.28;10325529;28;880;-77
2024/01/10 13:52:26;;;;;;;;;;;;;;;17.42;38.75;100847.47;10324101;28;842;-79
2024/01/10 13:57:22;;;;;;;;;;;;;;;17.43;38.73;100843.94;10324678;28;1909;-81
2024/01/10 14:02:19;;;;;;;;;;;;;;;17.33;39.14;100852.97;10324354;28;892;-76
2024/01/10 14:07:15;;;;;;;;;;;;;;;17.17;39.29;100862.13;10324484;28;810;-79
2024/01/10 14:12:11;;;;;;;;;;;;;;;17.21;38.99;100858.50;10324163;28;954;-82
2024/01/10 14:17:07;;;;;;;;;;;;;;;17.22;38.71;100854.97;10323434;28;1889;-78
2024/01/10 14:22:04;;;;;;;;;;;;;;;17.25;38.58;100854.91;10323622;28;882;-77
2024/01/10 14:27:00;;;;;;;;;;;;;;;17.27;38.89;100868.91;10324064;28;965;-78
2024/01/10 14:31:56;;;;;;;;;;;;;;;17.32;38.51;100877.59;10331147;28;833;-78
2024/01/10 14:36:51;;;;;;;;;;;;;;;17.33;38.58;100862.63;10330592;28;1890;-77
2024/01/10 14:41:47;;;;;;;;;;;;;;;17.28;38.65;100860.97;10331839;28;906;-77
2024/01/10 14:46:43;;;;;;;;;;;;;;;17.30;38.53;100856.53;10331216;28;797;-78
2024/01/10 14:51:39;;;;;;;;;;;;;;;17.31;38.63;100866.16;10330296;28;842;-78
2024/01/10 14:56:35;;;;;;;;;;;;;;;17.29;38.68;100872.34;10331506;28;1964;-78
2024/01/10 15:01:31;;;;;;;;;;;;;;;17.30;38.62;100866.22;10331230;28;975;-78
2024/01/10 15:06:27;;;;;;;;;;;;;;;17.20;38.82;100862.91;10330676;28;915;-79
2024/01/10 15:11:22;;;;;;;;;;;;;;;17.23;38.84;100861.97;10330192;28;818;-79
2024/01/10 15:16:20;;;;;;;;;;;;;;;17.25;38.58;100868.09;10329958;28;1951;-79
2024/01/10 15:21:16;;;;;;;;;;;;;;;17.22;38.56;100871.66;10330359;28;837;-79
2024/01/10 15:26:12;;;;;;;;;;;;;;;17.24;38.75;100869.84;10329653;28;856;-79
2024/01/10 15:31:09;;;;;;;;;;;;;;;17.22;38.64;100871.66;10328761;28;910;-79
2024/01/10 15:36:04;;;;;;;;;;;;;;;17.20;38.71;100865.53;10329083;28;1972;-78
2024/01/10 15:41:02;;;;;;;;;;;;;;;17.22;38.61;100868.16;10329527;28;1017;-78
2024/01/10 15:45:58;;;;;;;;;;;;;;;17.23;38.79;100867.25;10328908;28;846;-78
2024/01/10 15:50:54;;;;;;;;;;;;;;;17.23;38.74;100868.09;10328603;28;909;-78
2024/01/10 15:55:50;;;;;;;;;;;;;;;17.25;38.74;100876.84;10328981;28;1910;-78
2024/01/10 16:00:46;;;;;;;;;;;;;;;17.25;38.91;100873.34;10328207;28;853;-77
2024/01/10 16:05:42;;;;;;;;;;;;;;;17.24;39.08;100877.75;10328052;28;918;-78
2024/01/10 16:10:41;;;;;;;;;;;;;;;17.21;38.89;100872.56;10327794;28;984;-78
2024/01/10 16:15:37;;;;;;;;;;;;;;;17.19;38.88;100876.13;10327712;28;1947;-78
2024/01/10 16:20:32;;;;;;;;;;;;;;;17.26;38.88;100865.41;10327364;28;941;-79
2024/01/10 16:25:28;;;;;;;;;;;;;;;17.23;39.04;100860.19;10327903;28;906;-77
2024/01/10 16:30:24;;;;;;;;;;;;;;;17.23;39.08;100860.19;10327148;28;822;-79
2024/01/10 16:35:20;;;;;;;;;;;;;;;17.24;38.98;100871.63;10327203;28;1964;-78
2024/01/10 16:40:17;;;;;;;;;;;;;;;17.19;39.08;100877.00;10326621;28;885;-79
2024/01/10 16:45:13;;;;;;;;;;;;;;;17.22;38.89;100868.16;10326497;28;877;-78
2024/01/10 16:50:09;;;;;;;;;;;;;;;17.24;39.05;100885.66;10325777;28;813;-79
2024/01/10 16:55:05;;;;;;;;;;;;;;;17.24;38.76;100890.94;10326679;28;1914;-78
2024/01/10 17:00:01;;;;;;;;;;;;;;;17.25;38.74;100892.66;10326040;28;864;-78
2024/01/10 17:04:57;;;;;;;;;;;;;;;17.29;38.69;100904.88;10326271;28;786;-78
2024/01/10 17:09:52;;;;;;;;;;;;;;;17.23;38.88;100905.00;10325993;28;806;-80
2024/01/10 17:14:48;;;;;;;;;;;;;;;17.28;39.00;100905.75;10325550;28;1959;-79
2024/01/10 17:19:44;;;;;;;;;;;;;;;17.27;38.74;100911.94;10326091;28;806;-78
2024/01/10 17:24:40;;;;;;;;;;;;;;;17.29;38.91;100903.97;10326014;28;849;-78
2024/01/10 17:29:36;;;;;;;;;;;;;;;17.32;38.83;100914.47;10325956;28;916;-78
2024/01/10 17:34:32;;;;;;;;;;;;;;;17.31;39.01;100915.38;10325121;28;1945;-79
2024/01/10 17:39:28;;;;;;;;;;;;;;;17.33;38.85;100920.63;10325456;28;1381;-79
2024/01/10 17:44:24;;;;;;;;;;;;;;;17.31;38.98;100924.13;10325044;28;879;-79
2024/01/10 17:49:20;;;;;;;;;;;;;;;17.28;38.99;100924.19;10324891;28;807;-77
2024/01/10 17:54:15;;;;;;;;;;;;;;;17.31;39.01;100928.53;10326273;28;984;-79
2024/01/10 17:59:11;;;;;;;;;;;;;;;17.29;38.95;100939.13;10324732;28;989;-79
2024/01/10 18:04:08;;;;;;;;;;;;;;;17.21;39.12;100943.72;10328330;28;806;-79
2024/01/10 18:09:03;;;;;;;;;;;;;;;17.11;39.27;100944.81;10333207;28;869;-80
2024/01/10 18:14:00;;;;;;;;;;;;;;;17.04;39.40;100941.41;10332485;28;770;-79
2024/01/10 18:18:56;;;;;;;;;;;;;;;17.03;39.75;100950.22;10332130;28;2021;-79
2024/01/10 18:23:52;;;;;;;;;;;;;;;17.00;39.38;100949.41;10332236;28;953;-79
2024/01/10 18:28:47;;;;;;;;;;;;;;;17.00;39.60;100958.19;10331840;28;913;-78
2024/01/10 18:33:43;;;;;;;;;;;;;;;17.04;39.35;100951.94;10331648;28;770;-77
2024/01/10 18:38:39;;;;;;;;;;;;;;;16.99;39.38;100950.31;10331489;28;1955;-78
2024/01/10 18:43:35;;;;;;;;;;;;;;;17.02;39.22;100959.00;10331494;28;933;-78
2024/01/10 18:48:31;;;;;;;;;;;;;;;17.11;39.00;100967.63;10331956;28;765;-79
2024/01/10 18:53:27;;;;;;;;;;;;;;;17.18;38.79;100964.81;10331695;28;929;-78
2024/01/10 18:58:23;;;;;;;;;;;;;;;17.18;38.97;100970.09;10330932;28;1914;-79
2024/01/10 19:03:18;;;;;;;;;;;;;;;17.23;38.86;100975.28;10331417;28;882;-78
2024/01/10 19:08:14;;;;;;;;;;;;;;;17.25;38.84;100981.38;10331359;28;965;-79
2024/01/10 19:13:10;;;;;;;;;;;;;;;17.22;38.80;100987.59;10329893;28;782;-78
2024/01/10 19:18:06;;;;;;;;;;;;;;;17.27;38.72;100983.09;10330825;28;1957;-79
2024/01/10 19:23:02;;;;;;;;;;;;;;;17.31;38.67;100981.25;10330132;28;929;-78
2024/01/10 19:27:58;;;;;;;;;;;;;;;17.26;38.81;100978.69;10330003;28;853;-78
2024/01/10 19:32:54;;;;;;;;;;;;;;;17.33;38.60;100978.59;10329653;28;1083;-78
2024/01/10 19:37:50;;;;;;;;;;;;;;;17.29;38.79;100978.66;10330192;28;1898;-77
2024/01/10 19:42:46;;;;;;;;;;;;;;;17.30;38.53;100983.00;10329866;28;804;-78
2024/01/10 19:47:41;;;;;;;;;;;;;;;17.30;38.70;100985.66;10329259;28;814;-78
2024/01/10 19:52:37;;;;;;;;;;;;;;;17.32;38.72;100983.00;10328890;28;939;-78
2024/01/10 19:57:35;;;;;;;;;;;;;;;17.33;38.47;100978.59;10328585;28;1914;-78
2024/01/10 20:02:31;;;;;;;;;;;;;;;17.33;38.57;100983.84;10328390;28;898;-78
2024/01/10 20:07:26;;;;;;;;;;;;;;;17.33;38.47;100990.00;10328977;28;809;-78
2024/01/10 20:12:22;;;;;;;;;;;;;;;17.37;38.48;100990.78;10328081;28;806;-78
2024/01/10 20:17:18;;;;;;;;;;;;;;;17.33;38.65;100983.84;10328636;28;1890;-78
2024/01/10 20:22:14;;;;;;;;;;;;;;;17.34;38.59;100975.91;10328307;28;909;-78
2024/01/10 20:27:10;;;;;;;;;;;;;;;17.34;38.52;100982.94;10326606;28;757;-78
2024/01/10 20:32:07;;;;;;;;;;;;;;;17.30;38.65;100990.91;10327190;28;993;-78
2024/01/10 20:37:03;;;;;;;;;;;;;;;17.28;38.67;100995.34;10326693;28;1889;-78
2024/01/10 20:41:59;;;;;;;;;;;;;;;17.23;38.55;100994.56;10327442;28;869;-78
2024/01/10 20:46:55;;;;;;;;;;;;;;;17.20;38.93;101001.69;10327316;28;782;-78
2024/01/10 20:51:51;;;;;;;;;;;;;;;17.20;38.77;101012.22;10327078;28;778;-78
2024/01/10 20:56:46;;;;;;;;;;;;;;;17.16;38.92;101015.81;10327229;28;1906;-79
2024/01/10 21:01:42;;;;;;;;;;;;;;;17.16;38.93;101019.34;10326190;28;900;-78
2024/01/10 21:06:38;;;;;;;;;;;;;;;17.11;38.98;101013.28;10326063;28;909;-79
2024/01/10 21:11:34;;;;;;;;;;;;;;;17.07;38.87;101006.34;10327197;28;775;-78
2024/01/10 21:16:30;;;;;;;;;;;;;;;17.05;39.02;101011.63;10325785;28;1949;-78
2024/01/10 21:21:26;;;;;;;;;;;;;;;17.11;38.83;101023.84;10326131;28;818;-78
2024/01/10 21:26:22;;;;;;;;;;;;;;;17.04;39.16;101027.47;10325619;28;849;-78
2024/01/10 21:31:18;;;;;;;;;;;;;;;17.05;39.00;101029.22;10325442;28;855;-79
2024/01/10 21:36:14;;;;;;;;;;;;;;;17.05;38.86;101039.75;10326289;28;1890;-78
2024/01/10 21:41:10;;;;;;;;;;;;;;;16.98;39.17;101051.31;10325978;28;965;-79
2024/01/10 21:46:06;;;;;;;;;;;;;;;16.97;39.04;101060.97;10325229;28;862;-78
2024/01/10 21:51:02;;;;;;;;;;;;;;;16.94;39.26;101065.44;10325028;28;952;-78
2024/01/10 21:55:57;;;;;;;;;;;;;;;16.89;39.15;101085.72;10323672;28;1967;-78
2024/01/10 22:00:53;;;;;;;;;;;;;;;16.85;39.42;101087.53;10325024;28;932;-78
2024/01/10 22:05:49;;;;;;;;;;;;;;;16.82;39.42;101095.47;10325701;28;842;-78
2024/01/10 22:10:45;;;;;;;;;;;;;;;16.80;39.48;101098.16;10324722;28;887;-79
2024/01/10 22:15:41;;;;;;;;;;;;;;;16.77;39.46;101092.94;10324557;28;1949;-78
2024/01/10 22:20:37;;;;;;;;;;;;;;;16.76;39.31;101096.41;10325164;28;927;-78
2024/01/10 22:25:33;;;;;;;;;;;;;;;16.74;39.33;101092.06;10323887;28;1011;-78
2024/01/10 22:30:29;;;;;;;;;;;;;;;16.71;39.27;101095.63;10324343;28;785;-78
2024/01/10 22:35:25;;;;;;;;;;;;;;;16.71;39.34;101100.91;10324062;28;1898;-78
2024/01/10 22:40:21;;;;;;;;;;;;;;;16.70;39.40;101106.22;10324234;28;818;-78
2024/01/10 22:45:17;;;;;;;;;;;;;;;16.68;39.47;101110.63;10324163;28;956;-79
2024/01/10 22:50:15;;;;;;;;;;;;;;;16.70;39.51;101100.94;10328115;28;791;-78
2024/01/10 22:55:11;;;;;;;;;;;;;;;16.70;39.21;101098.31;10331007;28;1910;-78
2024/01/10 23:00:11;;;;;;;;;;;;;;;16.68;39.40;101098.31;10331544;28;862;-78
2024/01/10 23:05:07;;;;;;;;;;;;;;;16.68;39.48;101106.22;10331392;28;911;-78
2024/01/10 23:10:03;;;;;;;;;;;;;;;16.67;39.21;101108.91;10331479;28;864;-78
2024/01/10 23:14:59;;;;;;;;;;;;;;;16.68;39.38;101108.84;10329702;28;1921;-78
2024/01/10 23:19:54;;;;;;;;;;;;;;;16.68;39.20;101103.59;10330817;28;858;-78
2024/01/10 23:24:50;;;;;;;;;;;;;;;16.67;39.28;101111.53;10330646;28;799;-79
2024/01/10 23:29:46;;;;;;;;;;;;;;;16.66;39.34;101113.28;10330400;28;996;-78
2024/01/10 23:34:42;;;;;;;;;;;;;;;16.64;39.36;101115.94;10329081;28;1929;-78
2024/01/10 23:39:38;;;;;;;;;;;;;;;16.63;39.34;101121.22;10330427;28;1350;-78
2024/01/10 23:44:34;;;;;;;;;;;;;;;16.63;39.22;101118.59;10329311;28;786;-79
2024/01/10 23:49:30;;;;;;;;;;;;;;;16.63;39.19;101121.22;10329109;28;937;-77
2024/01/10 23:54:26;;;;;;;;;;;;;;;16.60;39.40;101113.38;10329548;28;770;-78
2024/01/10 23:59:21;;;;;;;;;;;;;;;16.57;39.23;101108.16;10328545;28;1922;-76
